createdAt,value
2019-03-19T00:00:19.243Z,1.30
2019-03-19T00:02:47.738Z,1.30
2019-03-19T00:05:16.213Z,1.30
2019-03-19T00:07:44.722Z,1.30
2019-03-19T00:10:13.218Z,1.30
2019-03-19T00:12:41.735Z,1.30
2019-03-19T00:15:11.247Z,1.30
2019-03-19T00:17:39.732Z,1.20
2019-03-19T00:20:13.375Z,1.20
2019-03-19T00:22:41.881Z,1.20
2019-03-19T00:25:10.481Z,1.20
2019-03-19T00:27:39.041Z,1.10
2019-03-19T00:30:15.649Z,1.00
2019-03-19T00:32:44.267Z,0.90
2019-03-19T00:35:13.145Z,0.90
2019-03-19T00:37:41.621Z,0.80
2019-03-19T00:40:12.133Z,0.80
2019-03-19T00:42:40.562Z,0.70
2019-03-19T00:45:13.438Z,0.70
2019-03-19T00:47:41.909Z,0.80
2019-03-19T00:50:12.273Z,0.80
2019-03-19T00:52:40.722Z,0.80
2019-03-19T00:55:09.318Z,0.80
2019-03-19T00:57:37.769Z,0.70
2019-03-19T01:00:11.965Z,0.70
2019-03-19T01:02:40.394Z,0.70
2019-03-19T01:05:09.458Z,0.70
2019-03-19T01:07:37.916Z,0.60
2019-03-19T01:10:12.231Z,0.60
2019-03-19T01:12:40.675Z,0.50
2019-03-19T01:15:15.761Z,0.50
2019-03-19T01:17:44.353Z,0.40
2019-03-19T01:20:14.324Z,0.40
2019-03-19T01:22:42.796Z,0.30
2019-03-19T01:25:11.693Z,0.20
2019-03-19T01:27:40.149Z,0.00
2019-03-19T01:30:36.462Z,0.00
2019-03-19T01:33:04.913Z,-0.10
2019-03-19T01:35:33.407Z,-0.10
2019-03-19T01:38:01.840Z,-0.10
2019-03-19T01:40:30.354Z,-0.20
2019-03-19T01:42:58.870Z,-0.30
2019-03-19T01:45:27.367Z,-0.30
2019-03-19T01:47:55.866Z,-0.40
2019-03-19T01:50:24.327Z,-0.40
2019-03-19T01:52:52.797Z,-0.50
2019-03-19T01:55:21.292Z,-0.60
2019-03-19T01:57:49.728Z,-0.60
2019-03-19T02:00:19.728Z,-0.50
2019-03-19T02:02:48.155Z,-0.50
2019-03-19T02:05:16.922Z,-0.50
2019-03-19T02:07:45.397Z,-0.50
2019-03-19T02:10:14.501Z,-0.50
2019-03-19T02:12:43.038Z,-0.50
2019-03-19T02:15:18.267Z,-0.60
2019-03-19T02:17:46.832Z,-0.60
2019-03-19T02:20:17.431Z,-0.70
2019-03-19T02:22:46.036Z,-0.50
2019-03-19T02:25:14.513Z,-0.60
2019-03-19T02:27:42.970Z,-0.60
2019-03-19T02:30:15.437Z,-0.60
2019-03-19T02:32:44.058Z,-0.80
2019-03-19T02:35:12.785Z,-0.80
2019-03-19T02:37:41.295Z,-1.00
2019-03-19T02:40:14.584Z,-1.10
2019-03-19T02:42:43.052Z,-1.10
2019-03-19T02:45:13.844Z,-1.10
2019-03-19T02:47:42.343Z,-1.00
2019-03-19T02:50:13.462Z,-1.10
2019-03-19T02:52:41.951Z,-1.10
2019-03-19T02:55:10.834Z,-1.10
2019-03-19T02:57:39.304Z,-1.10
2019-03-19T03:00:13.098Z,-1.10
2019-03-19T03:02:41.705Z,-1.20
2019-03-19T03:05:15.185Z,-1.20
2019-03-19T03:07:43.654Z,-1.10
2019-03-19T03:10:13.036Z,-1.10
2019-03-19T03:12:41.578Z,-1.10
2019-03-19T03:15:12.395Z,-1.10
2019-03-19T03:17:41.024Z,-1.10
2019-03-19T03:20:16.686Z,-1.10
2019-03-19T03:22:45.306Z,-1.10
2019-03-19T03:25:16.062Z,-1.10
2019-03-19T03:27:44.482Z,-1.00
2019-03-19T03:30:23.277Z,-1.10
2019-03-19T03:32:51.909Z,-1.00
2019-03-19T03:35:20.421Z,-1.10
2019-03-19T03:37:48.919Z,-1.10
2019-03-19T03:40:18.228Z,-1.10
2019-03-19T03:42:46.726Z,-1.20
2019-03-19T03:45:19.548Z,-1.30
2019-03-19T03:47:48.088Z,-1.30
2019-03-19T03:50:19.906Z,-1.40
2019-03-19T03:52:48.476Z,-1.30
2019-03-19T03:55:19.169Z,-1.30
2019-03-19T03:57:47.646Z,-1.30
2019-03-19T04:00:20.916Z,-1.30
2019-03-19T04:02:49.513Z,-1.30
2019-03-19T04:05:18.119Z,-1.30
2019-03-19T04:07:46.723Z,-1.20
2019-03-19T04:10:16.301Z,-1.20
2019-03-19T04:12:44.783Z,-1.20
2019-03-19T04:15:14.366Z,-1.20
2019-03-19T04:17:42.937Z,-1.10
2019-03-19T04:20:13.484Z,-1.20
2019-03-19T04:22:42.055Z,-1.20
2019-03-19T04:25:11.156Z,-1.20
2019-03-19T04:27:40.568Z,-1.30
2019-03-19T04:30:15.428Z,-1.50
2019-03-19T04:32:43.849Z,-1.50
2019-03-19T04:35:12.381Z,-1.50
2019-03-19T04:37:40.860Z,-1.50
2019-03-19T04:40:12.479Z,-1.40
2019-03-19T04:42:41.054Z,-1.40
2019-03-19T04:45:11.133Z,-1.50
2019-03-19T04:47:39.561Z,-1.40
2019-03-19T04:50:12.974Z,-1.40
2019-03-19T04:52:41.410Z,-1.40
2019-03-19T04:55:16.966Z,-1.50
2019-03-19T04:57:45.490Z,-1.60
2019-03-19T05:00:18.003Z,-1.70
2019-03-19T05:02:46.454Z,-1.60
2019-03-19T05:05:15.099Z,-1.60
2019-03-19T05:07:43.737Z,-1.60
2019-03-19T05:10:18.955Z,-1.60
2019-03-19T05:12:47.418Z,-1.60
2019-03-19T05:15:15.947Z,-1.60
2019-03-19T05:17:44.447Z,-1.60
2019-03-19T05:20:13.928Z,-1.70
2019-03-19T05:22:42.514Z,-1.90
2019-03-19T05:25:11.801Z,-1.90
2019-03-19T05:27:40.630Z,-2.00
2019-03-19T05:30:18.923Z,-1.90
2019-03-19T05:32:47.414Z,-1.80
2019-03-19T05:35:15.973Z,-1.80
2019-03-19T05:37:44.570Z,-1.60
2019-03-19T05:40:14.215Z,-1.60
2019-03-19T05:42:42.715Z,-1.50
2019-03-19T05:45:12.494Z,-1.60
2019-03-19T05:47:41.066Z,-1.60
2019-03-19T05:50:15.404Z,-1.60
2019-03-19T05:52:44.061Z,-1.50
2019-03-19T05:55:12.679Z,-1.50
2019-03-19T05:57:49.380Z,-1.50
2019-03-19T06:00:16.350Z,-1.40
2019-03-19T06:02:44.802Z,-1.30
2019-03-19T06:05:13.410Z,-1.20
2019-03-19T06:07:42.017Z,-1.10
2019-03-19T06:10:12.342Z,-1.10
2019-03-19T06:12:40.862Z,-1.00
2019-03-19T06:15:11.881Z,-1.00
2019-03-19T06:17:40.321Z,0.10
2019-03-19T06:20:13.403Z,1.50
2019-03-19T06:22:41.989Z,3.00
2019-03-19T06:25:12.995Z,4.30
2019-03-19T06:27:41.860Z,5.10
2019-03-19T06:30:15.475Z,5.80
2019-03-19T06:32:43.907Z,6.80
2019-03-19T06:35:13.210Z,7.30
2019-03-19T06:37:41.646Z,7.40
2019-03-19T06:40:16.338Z,7.90
2019-03-19T06:42:44.899Z,7.90
2019-03-19T06:45:22.609Z,8.20
2019-03-19T06:47:50.066Z,8.60
2019-03-19T06:50:19.761Z,8.80
2019-03-19T06:52:48.307Z,9.30
2019-03-19T06:55:20.392Z,10.40
2019-03-19T06:57:48.962Z,10.70
2019-03-19T07:00:21.249Z,11.70
2019-03-19T07:02:49.768Z,12.00
2019-03-19T07:05:19.272Z,11.20
2019-03-19T07:07:47.764Z,12.20
2019-03-19T07:10:20.105Z,12.40
2019-03-19T07:12:48.663Z,12.10
2019-03-19T07:15:21.980Z,13.10
2019-03-19T07:17:50.577Z,12.70
2019-03-19T07:20:21.458Z,12.20
2019-03-19T07:22:49.895Z,11.80
2019-03-19T07:25:18.372Z,12.80
2019-03-19T07:27:46.824Z,13.80
2019-03-19T07:30:22.525Z,13.90
2019-03-19T07:32:51.067Z,13.30
2019-03-19T07:35:19.689Z,13.40
2019-03-19T07:37:48.146Z,12.80
2019-03-19T07:40:17.127Z,12.20
2019-03-19T07:42:45.665Z,11.90
2019-03-19T07:45:16.077Z,11.90
2019-03-19T07:47:44.515Z,11.00
2019-03-19T07:50:33.854Z,11.10
2019-03-19T07:53:02.351Z,11.80
2019-03-19T07:55:30.833Z,12.60
2019-03-19T07:57:59.380Z,13.40
2019-03-19T08:00:27.923Z,13.40
2019-03-19T08:02:56.402Z,13.50
2019-03-19T08:05:32.925Z,12.70
2019-03-19T08:07:55.061Z,11.10
2019-03-19T08:10:23.504Z,10.50
2019-03-19T08:12:52.079Z,10.90
2019-03-19T08:15:21.477Z,10.90
2019-03-19T08:17:50.019Z,11.50
2019-03-19T08:20:18.899Z,11.70
2019-03-19T08:22:47.510Z,11.60
2019-03-19T08:25:16.707Z,11.50
2019-03-19T08:27:45.369Z,11.60
2019-03-19T08:30:25.131Z,11.10
2019-03-19T08:32:53.842Z,9.80
2019-03-19T08:35:22.405Z,7.90
2019-03-19T08:37:50.864Z,6.70
2019-03-19T08:40:20.057Z,5.30
2019-03-19T08:42:48.517Z,4.90
2019-03-19T08:45:21.068Z,4.80
2019-03-19T08:47:49.815Z,4.70
2019-03-19T08:50:24.758Z,5.00
2019-03-19T08:52:55.238Z,5.40
2019-03-19T08:55:23.400Z,5.60
2019-03-19T08:57:51.941Z,5.60
2019-03-19T09:00:21.933Z,5.50
2019-03-19T09:02:50.479Z,5.50
2019-03-19T09:05:18.965Z,5.20
2019-03-19T09:07:47.403Z,5.40
2019-03-19T09:10:20.444Z,5.60
2019-03-19T09:12:49.145Z,6.00
2019-03-19T09:15:25.813Z,6.00
2019-03-19T09:17:54.510Z,5.50
2019-03-19T09:20:23.043Z,5.20
2019-03-19T09:22:51.526Z,5.00
2019-03-19T09:25:20.099Z,5.10
2019-03-19T09:27:48.529Z,5.10
2019-03-19T09:30:21.026Z,4.70
2019-03-19T09:32:49.533Z,4.60
2019-03-19T09:35:18.057Z,4.50
2019-03-19T09:37:57.622Z,4.40
2019-03-19T09:40:21.493Z,4.40
2019-03-19T09:42:49.958Z,4.70
2019-03-19T09:45:18.629Z,4.80
2019-03-19T09:47:47.392Z,4.90
2019-03-19T09:50:21.069Z,5.00
2019-03-19T09:52:49.634Z,5.00
2019-03-19T09:55:18.162Z,5.20
2019-03-19T09:57:46.614Z,5.30
2019-03-19T10:00:21.799Z,5.30
2019-03-19T10:02:50.428Z,4.90
2019-03-19T10:05:19.086Z,4.40
2019-03-19T10:07:47.633Z,4.30
2019-03-19T10:10:19.885Z,4.30
2019-03-19T10:12:48.372Z,4.40
2019-03-19T10:15:17.649Z,4.40
2019-03-19T10:17:46.174Z,4.60
2019-03-19T10:20:19.593Z,4.60
2019-03-19T10:22:48.122Z,4.60
2019-03-19T10:25:16.954Z,4.50
2019-03-19T10:27:45.387Z,4.40
2019-03-19T10:30:19.226Z,4.50
2019-03-19T10:32:47.652Z,4.50
2019-03-19T10:35:16.341Z,4.60
2019-03-19T10:37:44.805Z,4.80
2019-03-19T10:40:15.706Z,4.80
2019-03-19T10:42:44.259Z,4.70
2019-03-19T10:45:16.884Z,4.90
2019-03-19T10:47:45.429Z,5.40
2019-03-19T10:50:33.346Z,5.90
2019-03-19T10:53:01.848Z,6.30
2019-03-19T10:55:30.284Z,6.40
2019-03-19T10:57:58.763Z,6.40
2019-03-19T11:00:27.595Z,6.30
2019-03-19T11:02:56.086Z,6.00
2019-03-19T11:05:25.206Z,5.80
2019-03-19T11:07:53.728Z,5.90
2019-03-19T11:10:22.418Z,6.10
2019-03-19T11:12:50.952Z,5.90
2019-03-19T11:15:24.543Z,5.80
2019-03-19T11:17:53.036Z,5.80
2019-03-19T11:20:21.735Z,5.70
2019-03-19T11:22:50.319Z,5.60
2019-03-19T11:25:21.142Z,5.40
2019-03-19T11:27:49.616Z,5.40
2019-03-19T11:30:25.930Z,5.50
2019-03-19T11:32:54.465Z,5.60
2019-03-19T11:35:23.203Z,5.60
2019-03-19T11:37:51.717Z,5.70
2019-03-19T11:40:21.713Z,5.90
2019-03-19T11:42:50.804Z,5.80
2019-03-19T11:45:25.301Z,5.70
2019-03-19T11:47:53.888Z,5.40
2019-03-19T11:50:27.161Z,5.20
2019-03-19T11:52:55.919Z,5.20
2019-03-19T11:55:24.389Z,5.20
2019-03-19T11:57:52.991Z,5.30
2019-03-19T12:00:35.951Z,5.40
2019-03-19T12:03:14.915Z,5.50
2019-03-19T12:05:36.425Z,5.80
2019-03-19T12:08:05.499Z,6.10
2019-03-19T12:10:33.974Z,6.30
2019-03-19T12:13:02.594Z,6.30
2019-03-19T12:15:31.087Z,6.30
2019-03-19T12:17:59.574Z,6.00
2019-03-19T12:20:28.049Z,5.90
2019-03-19T12:22:56.541Z,5.70
2019-03-19T12:25:25.026Z,5.60
2019-03-19T12:27:53.509Z,5.70
2019-03-19T12:30:25.928Z,6.00
2019-03-19T12:32:53.353Z,5.90
2019-03-19T12:35:21.910Z,6.00
2019-03-19T12:37:50.355Z,6.30
2019-03-19T12:40:20.013Z,6.50
2019-03-19T12:42:48.529Z,6.60
2019-03-19T12:45:23.895Z,6.50
2019-03-19T12:47:52.357Z,6.50
2019-03-19T12:50:25.845Z,6.20
2019-03-19T12:52:54.325Z,5.90
2019-03-19T12:55:22.762Z,5.80
2019-03-19T12:57:51.303Z,5.70
2019-03-19T13:00:21.228Z,5.80
2019-03-19T13:02:49.917Z,6.00
2019-03-19T13:05:18.421Z,5.90
2019-03-19T13:07:46.957Z,6.00
2019-03-19T13:10:20.246Z,6.10
2019-03-19T13:12:48.847Z,6.40
2019-03-19T13:15:19.284Z,6.70
2019-03-19T13:17:48.350Z,6.80
2019-03-19T13:20:20.926Z,7.00
2019-03-19T13:22:49.452Z,7.00
2019-03-19T13:25:19.137Z,6.70
2019-03-19T13:27:47.672Z,6.40
2019-03-19T13:30:18.713Z,6.20
2019-03-19T13:32:47.216Z,6.10
2019-03-19T13:35:15.935Z,6.10
2019-03-19T13:37:44.396Z,5.90
2019-03-19T13:40:17.422Z,5.70
2019-03-19T13:42:46.014Z,5.80
2019-03-19T13:45:21.578Z,5.70
2019-03-19T13:47:50.101Z,5.70
2019-03-19T13:50:19.305Z,5.90
2019-03-19T13:52:47.846Z,5.90
2019-03-19T13:55:23.331Z,5.90
2019-03-19T13:57:51.881Z,5.90
2019-03-19T14:00:20.477Z,5.90
2019-03-19T14:02:48.942Z,5.90
2019-03-19T14:05:18.117Z,5.90
2019-03-19T14:07:46.650Z,6.10
2019-03-19T14:10:16.071Z,6.20
2019-03-19T14:12:44.707Z,6.30
2019-03-19T14:15:21.238Z,6.40
2019-03-19T14:17:49.797Z,6.60
2019-03-19T14:20:18.481Z,6.30
2019-03-19T14:22:46.986Z,6.10
2019-03-19T14:25:16.201Z,6.00
2019-03-19T14:27:45.115Z,5.70
2019-03-19T14:30:16.351Z,5.70
2019-03-19T14:32:44.913Z,5.50
2019-03-19T14:35:13.540Z,5.50
2019-03-19T14:37:42.114Z,5.50
2019-03-19T14:40:14.015Z,5.40
2019-03-19T14:42:42.498Z,5.40
2019-03-19T14:45:11.039Z,5.40
2019-03-19T14:47:39.515Z,5.40
2019-03-19T14:50:11.081Z,5.20
2019-03-19T14:52:39.563Z,5.20
2019-03-19T14:55:08.181Z,5.20
2019-03-19T14:57:36.665Z,5.20
2019-03-19T15:00:18.702Z,5.20
2019-03-19T15:02:47.162Z,5.20
2019-03-19T15:05:15.958Z,5.30
2019-03-19T15:07:44.482Z,5.30
2019-03-19T15:10:23.215Z,5.30
2019-03-19T15:12:51.714Z,5.20
2019-03-19T15:15:21.340Z,5.20
2019-03-19T15:17:49.868Z,5.30
2019-03-19T15:20:24.257Z,5.40
2019-03-19T15:22:52.812Z,5.40
2019-03-19T15:25:21.476Z,5.50
2019-03-19T15:27:50.123Z,5.50
2019-03-19T15:30:19.470Z,5.40
2019-03-19T15:32:47.991Z,5.40
2019-03-19T15:35:16.563Z,5.30
2019-03-19T15:37:45.025Z,5.30
2019-03-19T15:40:15.495Z,5.30
2019-03-19T15:42:44.168Z,5.30
2019-03-19T15:45:20.652Z,5.40
2019-03-19T15:47:49.187Z,5.40
2019-03-19T15:50:17.717Z,5.40
2019-03-19T15:52:46.167Z,5.40
2019-03-19T15:55:16.032Z,5.30
2019-03-19T15:57:44.533Z,5.30
2019-03-19T16:00:19.793Z,5.20
2019-03-19T16:02:48.490Z,5.20
2019-03-19T16:05:17.090Z,5.10
2019-03-19T16:07:45.683Z,5.20
2019-03-19T16:10:16.249Z,5.10
2019-03-19T16:12:44.838Z,5.10
2019-03-19T16:15:19.172Z,5.00
2019-03-19T16:17:47.681Z,5.00
2019-03-19T16:20:17.062Z,5.00
2019-03-19T16:22:45.613Z,5.00
2019-03-19T16:25:14.339Z,5.00
2019-03-19T16:27:42.997Z,5.00
2019-03-19T16:30:20.967Z,5.00
2019-03-19T16:32:49.464Z,5.00
2019-03-19T16:35:18.020Z,4.90
2019-03-19T16:37:46.498Z,4.90
2019-03-19T16:40:24.157Z,4.80
2019-03-19T16:42:52.705Z,4.70
2019-03-19T16:45:21.303Z,4.70
2019-03-19T16:47:49.819Z,4.60
2019-03-19T16:50:20.295Z,4.60
2019-03-19T16:52:48.844Z,4.70
2019-03-19T16:55:18.470Z,4.60
2019-03-19T16:57:46.912Z,4.60
2019-03-19T17:00:26.475Z,4.60
2019-03-19T17:02:55.142Z,4.60
2019-03-19T17:05:23.685Z,4.40
2019-03-19T17:07:52.228Z,4.30
2019-03-19T17:10:31.240Z,4.30
2019-03-19T17:13:01.362Z,4.20
2019-03-19T17:15:29.898Z,4.10
2019-03-19T17:17:58.399Z,4.00
2019-03-19T17:20:26.978Z,4.00
2019-03-19T17:22:55.602Z,3.90
2019-03-19T17:25:27.685Z,3.90
2019-03-19T17:27:56.275Z,3.80
2019-03-19T17:30:29.171Z,3.80
2019-03-19T17:32:57.714Z,3.90
2019-03-19T17:35:26.390Z,3.90
2019-03-19T17:37:54.859Z,3.90
2019-03-19T17:40:23.339Z,3.90
2019-03-19T17:42:51.782Z,3.90
2019-03-19T17:45:20.369Z,3.90
2019-03-19T17:47:48.838Z,3.90
2019-03-19T17:50:22.517Z,3.80
2019-03-19T17:52:55.046Z,3.90
2019-03-19T17:55:23.615Z,3.80
2019-03-19T17:57:52.162Z,3.80
2019-03-19T18:00:22.963Z,3.80
2019-03-19T18:02:51.589Z,3.70
2019-03-19T18:05:20.090Z,3.70
2019-03-19T18:07:48.623Z,3.70
2019-03-19T18:10:17.216Z,3.70
2019-03-19T18:12:45.789Z,3.70
2019-03-19T18:15:15.560Z,3.60
2019-03-19T18:17:44.265Z,3.70
2019-03-19T18:20:14.227Z,3.60
2019-03-19T18:22:42.798Z,3.60
2019-03-19T18:25:14.323Z,3.60
2019-03-19T18:27:42.826Z,3.60
2019-03-19T18:30:19.099Z,3.50
2019-03-19T18:32:47.678Z,3.40
2019-03-19T18:35:16.113Z,3.40
2019-03-19T18:37:44.631Z,3.40
2019-03-19T18:40:20.547Z,3.40
2019-03-19T18:42:49.082Z,3.40
2019-03-19T18:45:18.437Z,3.40
2019-03-19T18:47:47.046Z,3.40
2019-03-19T18:50:16.552Z,3.40
2019-03-19T18:52:45.053Z,3.30
2019-03-19T18:55:13.763Z,3.30
2019-03-19T18:57:42.238Z,3.30
2019-03-19T19:00:17.908Z,3.30
2019-03-19T19:02:50.308Z,3.40
2019-03-19T19:05:17.502Z,3.40
2019-03-19T19:07:46.123Z,3.40
2019-03-19T19:10:16.745Z,3.40
2019-03-19T19:12:45.551Z,3.30
2019-03-19T19:15:19.737Z,3.20
2019-03-19T19:17:48.201Z,3.10
2019-03-19T19:20:17.382Z,3.10
2019-03-19T19:22:45.918Z,3.10
2019-03-19T19:25:15.782Z,3.10
2019-03-19T19:27:44.257Z,3.10
2019-03-19T19:30:29.660Z,3.00
2019-03-19T19:33:02.126Z,3.00
2019-03-19T19:35:28.390Z,2.80
2019-03-19T19:37:56.839Z,2.70
2019-03-19T19:40:25.308Z,2.60
2019-03-19T19:42:53.830Z,2.50
2019-03-19T19:45:22.324Z,2.40
2019-03-19T19:47:50.787Z,2.40
2019-03-19T19:50:22.705Z,2.30
2019-03-19T19:52:51.300Z,2.40
2019-03-19T19:55:19.870Z,2.50
2019-03-19T19:57:48.474Z,2.60
2019-03-19T20:00:20.874Z,2.70
2019-03-19T20:02:49.485Z,2.70
2019-03-19T20:05:18.459Z,2.60
2019-03-19T20:07:46.950Z,2.60
2019-03-19T20:10:22.441Z,2.60
2019-03-19T20:12:50.953Z,2.60
2019-03-19T20:15:19.429Z,2.50
2019-03-19T20:17:47.866Z,2.30
2019-03-19T20:20:24.610Z,2.30
2019-03-19T20:22:53.193Z,2.10
2019-03-19T20:25:21.740Z,2.10
2019-03-19T20:27:50.293Z,2.10
2019-03-19T20:30:21.046Z,1.90
2019-03-19T20:32:49.501Z,1.80
2019-03-19T20:35:18.134Z,1.80
2019-03-19T20:37:46.673Z,1.90
2019-03-19T20:40:16.043Z,1.90
2019-03-19T20:42:46.282Z,2.10
2019-03-19T20:45:19.714Z,2.20
2019-03-19T20:47:48.237Z,2.20
2019-03-19T20:50:28.098Z,2.30
2019-03-19T20:52:56.555Z,2.30
2019-03-19T20:55:25.015Z,2.20
2019-03-19T20:57:53.847Z,2.20
2019-03-19T21:00:22.386Z,2.10
2019-03-19T21:02:50.861Z,2.20
2019-03-19T21:05:19.318Z,2.20
2019-03-19T21:07:47.746Z,2.10
2019-03-19T21:10:21.300Z,2.10
2019-03-19T21:12:49.834Z,2.10
2019-03-19T21:15:31.737Z,2.10
2019-03-19T21:18:00.243Z,2.10
2019-03-19T21:20:28.685Z,2.00
2019-03-19T21:22:57.196Z,2.00
2019-03-19T21:25:25.764Z,1.90
2019-03-19T21:27:54.338Z,1.80
2019-03-19T21:30:23.831Z,1.80
2019-03-19T21:32:52.440Z,1.90
2019-03-19T21:35:22.143Z,1.90
2019-03-19T21:37:51.627Z,2.00
2019-03-19T21:40:20.362Z,2.10
2019-03-19T21:42:49.846Z,2.10
2019-03-19T21:45:19.465Z,2.20
2019-03-19T21:47:48.042Z,2.20
2019-03-19T21:50:21.607Z,2.10
2019-03-19T21:52:50.090Z,2.00
2019-03-19T21:55:18.630Z,2.00
2019-03-19T21:57:47.111Z,1.90
2019-03-19T22:00:21.888Z,1.90
2019-03-19T22:02:50.490Z,1.90
2019-03-19T22:05:18.959Z,1.90
2019-03-19T22:07:47.465Z,1.90
2019-03-19T22:10:19.921Z,1.90
2019-03-19T22:12:49.509Z,1.90
2019-03-19T22:15:25.086Z,1.90
2019-03-19T22:17:53.633Z,2.00
2019-03-19T22:20:22.431Z,2.00
2019-03-19T22:22:50.941Z,2.00
2019-03-19T22:25:19.405Z,2.00
2019-03-19T22:27:47.853Z,1.90
2019-03-19T22:30:18.437Z,1.80
2019-03-19T22:32:46.901Z,1.70
2019-03-19T22:35:15.446Z,1.80
2019-03-19T22:37:44.028Z,1.80
2019-03-19T22:40:18.999Z,1.80
2019-03-19T22:42:47.585Z,1.80
2019-03-19T22:45:17.362Z,1.80
2019-03-19T22:47:46.831Z,1.80
2019-03-19T22:50:16.045Z,1.80
2019-03-19T22:52:44.792Z,1.70
2019-03-19T22:55:14.183Z,1.80
2019-03-19T22:57:42.729Z,1.70
2019-03-19T23:00:14.346Z,1.70
2019-03-19T23:02:42.812Z,1.80
2019-03-19T23:05:12.888Z,1.70
2019-03-19T23:07:41.473Z,1.70
2019-03-19T23:10:10.329Z,1.70
2019-03-19T23:12:39.193Z,1.60
2019-03-19T23:15:09.874Z,1.60
2019-03-19T23:17:38.302Z,1.60
2019-03-19T23:20:09.914Z,1.60
2019-03-19T23:22:38.456Z,1.50
2019-03-19T23:25:07.259Z,1.50
2019-03-19T23:27:35.878Z,1.40
2019-03-19T23:30:07.722Z,1.40
2019-03-19T23:32:36.269Z,1.40
2019-03-19T23:35:06.578Z,1.30
2019-03-19T23:37:35.060Z,1.20
2019-03-19T23:40:04.673Z,1.20
2019-03-19T23:42:33.189Z,1.10
2019-03-19T23:45:01.641Z,1.00
2019-03-19T23:47:30.078Z,0.80
2019-03-19T23:49:58.546Z,0.70
2019-03-19T23:52:27.043Z,0.60
2019-03-19T23:54:55.539Z,0.60
2019-03-19T23:57:23.973Z,0.40
2019-03-19T23:59:52.457Z,0.30
